sensor_id;sensor_type;location;lat;lon;timestamp;pressure;altitude;pressure_sealevel;temperature;humidity
68117;BME280;54909;54.464;18.498;2024-01-30T00:02:22;102800;;;4.18;71
68117;BME280;54909;54.464;18.498;2024-01-30T00:05:23;102800;;;4.20;71
68117;BME280;54909;54.464;18.498;2024-01-30T00:08:25;102800;;;4.25;71
68117;BME280;54909;54.464;18.498;2024-01-30T00:11:31;102800;;;4.25;71
68117;BME280;54909;54.464;18.498;2024-01-30T00:14:32;102800;;;4.20;71
68117;BME280;54909;54.464;18.498;2024-01-30T00:17:33;102800;;;4.17;72
68117;BME280;54909;54.464;18.498;2024-01-30T00:20:43;102800;;;4.11;72
68117;BME280;54909;54.464;18.498;2024-01-30T00:23:44;102800;;;4.02;72
68117;BME280;54909;54.464;18.498;2024-01-30T00:26:46;102800;;;3.92;73
68117;BME280;54909;54.464;18.498;2024-01-30T00:29:47;102800;;;3.79;73
68117;BME280;54909;54.464;18.498;2024-01-30T00:32:48;102800;;;3.67;73
68117;BME280;54909;54.464;18.498;2024-01-30T00:35:49;102800;;;3.61;74
68117;BME280;54909;54.464;18.498;2024-01-30T00:38:51;102800;;;3.52;74
68117;BME280;54909;54.464;18.498;2024-01-30T00:41:53;102800;;;3.44;74
68117;BME280;54909;54.464;18.498;2024-01-30T00:44:58;102800;;;3.38;75
68117;BME280;54909;54.464;18.498;2024-01-30T00:47:59;102800;;;3.30;75
68117;BME280;54909;54.464;18.498;2024-01-30T00:51:01;102800;;;3.24;75
68117;BME280;54909;54.464;18.498;2024-01-30T00:54:02;102800;;;3.18;75
68117;BME280;54909;54.464;18.498;2024-01-30T00:57:04;102800;;;3.14;76
68117;BME280;54909;54.464;18.498;2024-01-30T01:00:07;102800;;;3.07;76
68117;BME280;54909;54.464;18.498;2024-01-30T01:03:09;102800;;;3.01;76
68117;BME280;54909;54.464;18.498;2024-01-30T01:06:11;102800;;;2.94;77
68117;BME280;54909;54.464;18.498;2024-01-30T01:09:13;102800;;;2.92;77
68117;BME280;54909;54.464;18.498;2024-01-30T01:12:14;102800;;;2.91;77
68117;BME280;54909;54.464;18.498;2024-01-30T01:15:16;102800;;;2.85;77
68117;BME280;54909;54.464;18.498;2024-01-30T01:18:26;102800;;;2.79;77
68117;BME280;54909;54.464;18.498;2024-01-30T01:21:28;102800;;;2.76;77
68117;BME280;54909;54.464;18.498;2024-01-30T01:24:32;102800;;;2.75;78
68117;BME280;54909;54.464;18.498;2024-01-30T01:27:39;102800;;;2.76;77
68117;BME280;54909;54.464;18.498;2024-01-30T01:30:43;102800;;;2.70;77
68117;BME280;54909;54.464;18.498;2024-01-30T01:33:44;102800;;;2.61;78
68117;BME280;54909;54.464;18.498;2024-01-30T01:36:52;102800;;;2.55;78
68117;BME280;54909;54.464;18.498;2024-01-30T01:39:56;102800;;;2.52;79
68117;BME280;54909;54.464;18.498;2024-01-30T01:42:57;102800;;;2.59;79
68117;BME280;54909;54.464;18.498;2024-01-30T01:46:06;102800;;;2.61;79
68117;BME280;54909;54.464;18.498;2024-01-30T01:49:08;102800;;;2.62;79
68117;BME280;54909;54.464;18.498;2024-01-30T01:52:10;102800;;;2.66;79
68117;BME280;54909;54.464;18.498;2024-01-30T01:55:17;102800;;;2.72;79
68117;BME280;54909;54.464;18.498;2024-01-30T01:58:25;102700;;;2.71;79
68117;BME280;54909;54.464;18.498;2024-01-30T02:01:33;102800;;;2.69;79
68117;BME280;54909;54.464;18.498;2024-01-30T02:04:34;102700;;;2.67;79
68117;BME280;54909;54.464;18.498;2024-01-30T02:07:35;102700;;;2.69;79
68117;BME280;54909;54.464;18.498;2024-01-30T02:10:37;102700;;;2.73;79
68117;BME280;54909;54.464;18.498;2024-01-30T02:13:42;102700;;;2.79;79
68117;BME280;54909;54.464;18.498;2024-01-30T02:16:43;102700;;;2.76;79
68117;BME280;54909;54.464;18.498;2024-01-30T02:19:45;102700;;;2.78;79
68117;BME280;54909;54.464;18.498;2024-01-30T02:22:46;102700;;;2.76;79
68117;BME280;54909;54.464;18.498;2024-01-30T02:25:49;102700;;;2.74;79
68117;BME280;54909;54.464;18.498;2024-01-30T02:28:53;102700;;;2.79;79
68117;BME280;54909;54.464;18.498;2024-01-30T02:31:54;102700;;;2.80;79
68117;BME280;54909;54.464;18.498;2024-01-30T02:34:56;102700;;;2.82;79
68117;BME280;54909;54.464;18.498;2024-01-30T02:37:58;102700;;;2.82;79
68117;BME280;54909;54.464;18.498;2024-01-30T02:40:59;102700;;;2.79;79
68117;BME280;54909;54.464;18.498;2024-01-30T02:44:01;102700;;;2.77;79
68117;BME280;54909;54.464;18.498;2024-01-30T02:47:10;102700;;;2.72;79
68117;BME280;54909;54.464;18.498;2024-01-30T02:50:11;102700;;;2.67;79
68117;BME280;54909;54.464;18.498;2024-01-30T02:53:13;102700;;;2.69;79
68117;BME280;54909;54.464;18.498;2024-01-30T02:56:23;102700;;;2.66;79
68117;BME280;54909;54.464;18.498;2024-01-30T02:59:25;102700;;;2.67;79
68117;BME280;54909;54.464;18.498;2024-01-30T03:02:26;102700;;;2.69;79
68117;BME280;54909;54.464;18.498;2024-01-30T03:05:27;102700;;;2.67;79
68117;BME280;54909;54.464;18.498;2024-01-30T03:08:29;102700;;;2.64;79
68117;BME280;54909;54.464;18.498;2024-01-30T03:11:30;102700;;;2.59;79
68117;BME280;54909;54.464;18.498;2024-01-30T03:14:32;102700;;;2.56;79
68117;BME280;54909;54.464;18.498;2024-01-30T03:17:33;102700;;;2.53;80
68117;BME280;54909;54.464;18.498;2024-01-30T03:20:38;102700;;;2.43;80
68117;BME280;54909;54.464;18.498;2024-01-30T03:23:39;102700;;;2.40;80
68117;BME280;54909;54.464;18.498;2024-01-30T03:26:42;102700;;;2.25;81
68117;BME280;54909;54.464;18.498;2024-01-30T03:29:51;102700;;;2.35;80
68117;BME280;54909;54.464;18.498;2024-01-30T03:32:52;102700;;;2.36;80
68117;BME280;54909;54.464;18.498;2024-01-30T03:35:54;102700;;;2.37;80
68117;BME280;54909;54.464;18.498;2024-01-30T03:39:03;102700;;;2.33;80
68117;BME280;54909;54.464;18.498;2024-01-30T03:42:05;102700;;;2.31;80
68117;BME280;54909;54.464;18.498;2024-01-30T03:45:07;102700;;;2.34;80
68117;BME280;54909;54.464;18.498;2024-01-30T03:48:16;102700;;;2.33;80
68117;BME280;54909;54.464;18.498;2024-01-30T03:51:17;102700;;;2.29;80
68117;BME280;54909;54.464;18.498;2024-01-30T03:54:18;102700;;;2.29;80
68117;BME280;54909;54.464;18.498;2024-01-30T03:57:20;102700;;;2.24;80
68117;BME280;54909;54.464;18.498;2024-01-30T04:00:22;102700;;;2.28;80
68117;BME280;54909;54.464;18.498;2024-01-30T04:03:23;102700;;;2.29;80
68117;BME280;54909;54.464;18.498;2024-01-30T04:06:26;102700;;;2.25;80
68117;BME280;54909;54.464;18.498;2024-01-30T04:09:27;102700;;;2.26;80
68117;BME280;54909;54.464;18.498;2024-01-30T04:12:29;102700;;;2.29;80
68117;BME280;54909;54.464;18.498;2024-01-30T04:15:31;102700;;;2.26;80
68117;BME280;54909;54.464;18.498;2024-01-30T04:18:33;102700;;;2.24;80
68117;BME280;54909;54.464;18.498;2024-01-30T04:21:42;102700;;;2.24;80
68117;BME280;54909;54.464;18.498;2024-01-30T04:24:44;102700;;;2.21;81
68117;BME280;54909;54.464;18.498;2024-01-30T04:27:45;102700;;;2.22;81
68117;BME280;54909;54.464;18.498;2024-01-30T04:30:46;102700;;;2.21;81
68117;BME280;54909;54.464;18.498;2024-01-30T04:33:47;102700;;;2.23;81
68117;BME280;54909;54.464;18.498;2024-01-30T04:36:49;102700;;;2.26;81
68117;BME280;54909;54.464;18.498;2024-01-30T04:39:50;102700;;;2.21;81
68117;BME280;54909;54.464;18.498;2024-01-30T04:42:52;102700;;;2.20;81
68117;BME280;54909;54.464;18.498;2024-01-30T04:45:56;102700;;;2.21;81
68117;BME280;54909;54.464;18.498;2024-01-30T04:48:57;102700;;;2.26;80
68117;BME280;54909;54.464;18.498;2024-01-30T04:51:58;102700;;;2.24;80
68117;BME280;54909;54.464;18.498;2024-01-30T04:55:08;102700;;;2.24;80
68117;BME280;54909;54.464;18.498;2024-01-30T04:58:09;102700;;;2.21;81
68117;BME280;54909;54.464;18.498;2024-01-30T05:01:15;102700;;;2.26;80
68117;BME280;54909;54.464;18.498;2024-01-30T05:04:19;102700;;;2.23;80
68117;BME280;54909;54.464;18.498;2024-01-30T05:07:21;102700;;;2.24;80
68117;BME280;54909;54.464;18.498;2024-01-30T05:10:22;102700;;;2.26;80
68117;BME280;54909;54.464;18.498;2024-01-30T05:13:31;102700;;;2.24;80
68117;BME280;54909;54.464;18.498;2024-01-30T05:16:33;102700;;;2.21;80
68117;BME280;54909;54.464;18.498;2024-01-30T05:19:34;102700;;;2.18;81
68117;BME280;54909;54.464;18.498;2024-01-30T05:22:44;102700;;;2.21;80
68117;BME280;54909;54.464;18.498;2024-01-30T05:25:46;102700;;;2.23;80
68117;BME280;54909;54.464;18.498;2024-01-30T05:28:47;102700;;;2.22;81
68117;BME280;54909;54.464;18.498;2024-01-30T05:31:54;102700;;;2.20;81
68117;BME280;54909;54.464;18.498;2024-01-30T05:34:55;102700;;;2.22;80
68117;BME280;54909;54.464;18.498;2024-01-30T05:37:57;102700;;;2.18;80
68117;BME280;54909;54.464;18.498;2024-01-30T05:41:06;102700;;;2.21;81
68117;BME280;54909;54.464;18.498;2024-01-30T05:44:08;102700;;;2.18;81
68117;BME280;54909;54.464;18.498;2024-01-30T05:47:10;102700;;;2.15;81
68117;BME280;54909;54.464;18.498;2024-01-30T05:50:19;102700;;;2.10;81
68117;BME280;54909;54.464;18.498;2024-01-30T05:53:25;102700;;;2.11;81
68117;BME280;54909;54.464;18.498;2024-01-30T05:56:27;102700;;;2.00;81
68117;BME280;54909;54.464;18.498;2024-01-30T05:59:32;102700;;;2.08;81
68117;BME280;54909;54.464;18.498;2024-01-30T06:02:33;102700;;;2.13;81
68117;BME280;54909;54.464;18.498;2024-01-30T06:05:34;102700;;;2.17;81
68117;BME280;54909;54.464;18.498;2024-01-30T06:08:44;102700;;;2.18;81
68117;BME280;54909;54.464;18.498;2024-01-30T06:11:46;102700;;;2.22;81
68117;BME280;54909;54.464;18.498;2024-01-30T06:14:47;102700;;;2.22;81
68117;BME280;54909;54.464;18.498;2024-01-30T06:17:56;102700;;;2.22;80
68117;BME280;54909;54.464;18.498;2024-01-30T06:20:57;102700;;;2.20;81
68117;BME280;54909;54.464;18.498;2024-01-30T06:23:59;102700;;;2.21;81
68117;BME280;54909;54.464;18.498;2024-01-30T06:27:09;102700;;;2.18;81
68117;BME280;54909;54.464;18.498;2024-01-30T06:30:11;102700;;;2.19;81
68117;BME280;54909;54.464;18.498;2024-01-30T06:33:13;102700;;;2.20;81
68117;BME280;54909;54.464;18.498;2024-01-30T06:36:18;102700;;;2.20;81
68117;BME280;54909;54.464;18.498;2024-01-30T06:39:20;102700;;;2.15;81
68117;BME280;54909;54.464;18.498;2024-01-30T06:42:21;102700;;;2.14;81
68117;BME280;54909;54.464;18.498;2024-01-30T06:45:30;102700;;;2.22;81
68117;BME280;54909;54.464;18.498;2024-01-30T06:48:31;102700;;;2.23;81
68117;BME280;54909;54.464;18.498;2024-01-30T06:51:32;102700;;;2.21;81
68117;BME280;54909;54.464;18.498;2024-01-30T06:54:41;102700;;;2.24;81
68117;BME280;54909;54.464;18.498;2024-01-30T06:57:43;102700;;;2.28;80
68117;BME280;54909;54.464;18.498;2024-01-30T07:00:44;102700;;;2.25;80
68117;BME280;54909;54.464;18.498;2024-01-30T07:03:54;102700;;;2.29;80
68117;BME280;54909;54.464;18.498;2024-01-30T07:06:55;102700;;;2.32;80
68117;BME280;54909;54.464;18.498;2024-01-30T07:09:58;102700;;;2.36;80
68117;BME280;54909;54.464;18.498;2024-01-30T07:13:06;102700;;;2.29;80
68117;BME280;54909;54.464;18.498;2024-01-30T07:16:10;102700;;;2.30;80
68117;BME280;54909;54.464;18.498;2024-01-30T07:19:14;102700;;;2.30;80
68117;BME280;54909;54.464;18.498;2024-01-30T07:22:18;102700;;;2.32;81
68117;BME280;54909;54.464;18.498;2024-01-30T07:25:30;102700;;;2.34;80
68117;BME280;54909;54.464;18.498;2024-01-30T07:28:29;102700;;;2.35;80
68117;BME280;54909;54.464;18.498;2024-01-30T07:31:31;102700;;;2.05;80
68117;BME280;54909;54.464;18.498;2024-01-30T07:34:32;102700;;;2.42;80
68117;BME280;54909;54.464;18.498;2024-01-30T07:37:34;102700;;;2.40;80
68117;BME280;54909;54.464;18.498;2024-01-30T07:40:42;102700;;;2.56;80
68117;BME280;54909;54.464;18.498;2024-01-30T07:43:43;102700;;;2.65;79
68117;BME280;54909;54.464;18.498;2024-01-30T07:46:45;102700;;;2.71;79
68117;BME280;54909;54.464;18.498;2024-01-30T07:49:53;102700;;;2.75;79
68117;BME280;54909;54.464;18.498;2024-01-30T07:53:00;102700;;;2.80;79
68117;BME280;54909;54.464;18.498;2024-01-30T07:56:02;102700;;;2.89;79
68117;BME280;54909;54.464;18.498;2024-01-30T07:59:05;102700;;;2.83;79
68117;BME280;54909;54.464;18.498;2024-01-30T08:02:06;102700;;;2.86;78
68117;BME280;54909;54.464;18.498;2024-01-30T08:05:08;102700;;;2.85;78
68117;BME280;54909;54.464;18.498;2024-01-30T08:08:18;102700;;;2.94;78
68117;BME280;54909;54.464;18.498;2024-01-30T08:11:20;102700;;;3.02;78
68117;BME280;54909;54.464;18.498;2024-01-30T08:14:27;102700;;;3.05;78
68117;BME280;54909;54.464;18.498;2024-01-30T08:17:30;102700;;;3.19;77
68117;BME280;54909;54.464;18.498;2024-01-30T08:20:32;102700;;;3.22;77
68117;BME280;54909;54.464;18.498;2024-01-30T08:23:33;102700;;;3.34;77
68117;BME280;54909;54.464;18.498;2024-01-30T08:26:34;102700;;;3.34;76
68117;BME280;54909;54.464;18.498;2024-01-30T08:29:36;102700;;;3.44;76
68117;BME280;54909;54.464;18.498;2024-01-30T08:32:37;102700;;;3.51;77
68117;BME280;54909;54.464;18.498;2024-01-30T08:35:38;102700;;;3.62;76
68117;BME280;54909;54.464;18.498;2024-01-30T08:38:39;102700;;;3.76;76
68117;BME280;54909;54.464;18.498;2024-01-30T08:41:43;102700;;;3.91;76
68117;BME280;54909;54.464;18.498;2024-01-30T08:44:44;102700;;;4.02;76
68117;BME280;54909;54.464;18.498;2024-01-30T08:47:45;102700;;;4.12;75
68117;BME280;54909;54.464;18.498;2024-01-30T08:50:54;102700;;;4.21;75
68117;BME280;54909;54.464;18.498;2024-01-30T08:53:56;102700;;;4.30;75
68117;BME280;54909;54.464;18.498;2024-01-30T08:56:57;102700;;;4.39;74
68117;BME280;54909;54.464;18.498;2024-01-30T09:00:08;102700;;;4.47;75
68117;BME280;54909;54.464;18.498;2024-01-30T09:03:10;102700;;;4.54;74
68117;BME280;54909;54.464;18.498;2024-01-30T09:06:11;102700;;;4.62;74
68117;BME280;54909;54.464;18.498;2024-01-30T09:09:20;102700;;;4.71;74
68117;BME280;54909;54.464;18.498;2024-01-30T09:12:21;102700;;;4.79;74
68117;BME280;54909;54.464;18.498;2024-01-30T09:15:22;102700;;;4.87;73
68117;BME280;54909;54.464;18.498;2024-01-30T09:18:32;102700;;;4.96;73
68117;BME280;54909;54.464;18.498;2024-01-30T09:21:33;102700;;;5.03;73
68117;BME280;54909;54.464;18.498;2024-01-30T09:24:35;102700;;;5.10;73
68117;BME280;54909;54.464;18.498;2024-01-30T09:27:36;102700;;;5.16;72
68117;BME280;54909;54.464;18.498;2024-01-30T09:30:37;102700;;;5.19;72
68117;BME280;54909;54.464;18.498;2024-01-30T09:33:38;102700;;;5.27;71
68117;BME280;54909;54.464;18.498;2024-01-30T09:36:40;102700;;;5.36;72
68117;BME280;54909;54.464;18.498;2024-01-30T09:39:41;102700;;;5.47;71
68117;BME280;54909;54.464;18.498;2024-01-30T09:42:47;102700;;;5.59;71
68117;BME280;54909;54.464;18.498;2024-01-30T09:45:51;102700;;;5.70;70
68117;BME280;54909;54.464;18.498;2024-01-30T09:48:55;102700;;;5.82;70
68117;BME280;54909;54.464;18.498;2024-01-30T09:52:05;102700;;;5.96;70
68117;BME280;54909;54.464;18.498;2024-01-30T09:55:08;102700;;;6.08;69
68117;BME280;54909;54.464;18.498;2024-01-30T09:58:09;102700;;;6.12;69
68117;BME280;54909;54.464;18.498;2024-01-30T10:01:17;102700;;;6.27;69
68117;BME280;54909;54.464;18.498;2024-01-30T10:04:19;102700;;;6.34;68
68117;BME280;54909;54.464;18.498;2024-01-30T10:07:20;102700;;;6.48;68
68117;BME280;54909;54.464;18.498;2024-01-30T10:10:25;102700;;;6.50;67
68117;BME280;54909;54.464;18.498;2024-01-30T10:13:27;102700;;;6.59;67
68117;BME280;54909;54.464;18.498;2024-01-30T10:16:28;102700;;;6.69;67
68117;BME280;54909;54.464;18.498;2024-01-30T10:19:29;102700;;;6.85;67
68117;BME280;54909;54.464;18.498;2024-01-30T10:22:30;102700;;;7.00;66
68117;BME280;54909;54.464;18.498;2024-01-30T10:25:31;102700;;;7.04;65
68117;BME280;54909;54.464;18.498;2024-01-30T10:28:33;102700;;;7.17;65
68117;BME280;54909;54.464;18.498;2024-01-30T10:31:34;102700;;;7.30;65
68117;BME280;54909;54.464;18.498;2024-01-30T10:34:41;102700;;;7.47;65
68117;BME280;54909;54.464;18.498;2024-01-30T10:37:47;102700;;;7.70;64
68117;BME280;54909;54.464;18.498;2024-01-30T10:40:52;102700;;;7.93;63
68117;BME280;54909;54.464;18.498;2024-01-30T10:44:03;102700;;;8.16;62
68117;BME280;54909;54.464;18.498;2024-01-30T10:47:11;102700;;;8.36;62
68117;BME280;54909;54.464;18.498;2024-01-30T10:50:14;102700;;;8.65;62
68117;BME280;54909;54.464;18.498;2024-01-30T10:53:17;102700;;;8.90;60
68117;BME280;54909;54.464;18.498;2024-01-30T10:56:22;102600;;;9.12;61
68117;BME280;54909;54.464;18.498;2024-01-30T10:59:24;102600;;;9.26;59
68117;BME280;54909;54.464;18.498;2024-01-30T11:02:28;102700;;;9.35;59
68117;BME280;54909;54.464;18.498;2024-01-30T11:05:30;102600;;;9.42;59
68117;BME280;54909;54.464;18.498;2024-01-30T11:08:34;102600;;;9.65;59
68117;BME280;54909;54.464;18.498;2024-01-30T11:14:48;102600;;;9.98;58
68117;BME280;54909;54.464;18.498;2024-01-30T11:17:52;102600;;;10.00;58
68117;BME280;54909;54.464;18.498;2024-01-30T11:20:56;102600;;;10.17;58
68117;BME280;54909;54.464;18.498;2024-01-30T11:23:57;102600;;;10.36;58
68117;BME280;54909;54.464;18.498;2024-01-30T11:26:59;102600;;;10.36;57
68117;BME280;54909;54.464;18.498;2024-01-30T11:30:05;102600;;;10.38;56
68117;BME280;54909;54.464;18.498;2024-01-30T11:33:11;102600;;;10.51;56
68117;BME280;54909;54.464;18.498;2024-01-30T11:36:13;102600;;;10.65;56
68117;BME280;54909;54.464;18.498;2024-01-30T11:39:17;102600;;;10.80;56
68117;BME280;54909;54.464;18.498;2024-01-30T11:42:23;102600;;;10.69;54
68117;BME280;54909;54.464;18.498;2024-01-30T11:45:29;102600;;;10.69;55
68117;BME280;54909;54.464;18.498;2024-01-30T11:48:30;102600;;;10.70;54
68117;BME280;54909;54.464;18.498;2024-01-30T11:51:31;102600;;;10.82;54
68117;BME280;54909;54.464;18.498;2024-01-30T11:54:32;102600;;;11.00;55
68117;BME280;54909;54.464;18.498;2024-01-30T11:57:36;102600;;;11.17;54
68117;BME280;54909;54.464;18.498;2024-01-30T12:00:37;102600;;;11.21;53
68117;BME280;54909;54.464;18.498;2024-01-30T12:03:38;102600;;;11.26;53
68117;BME280;54909;54.464;18.498;2024-01-30T12:06:51;102600;;;11.10;53
68117;BME280;54909;54.464;18.498;2024-01-30T12:09:53;102600;;;11.03;53
68117;BME280;54909;54.464;18.498;2024-01-30T12:12:55;102600;;;11.19;53
68117;BME280;54909;54.464;18.498;2024-01-30T12:16:01;102600;;;11.23;53
68117;BME280;54909;54.464;18.498;2024-01-30T12:19:02;102600;;;11.69;53
68117;BME280;54909;54.464;18.498;2024-01-30T12:22:03;102600;;;12.60;51
68117;BME280;54909;54.464;18.498;2024-01-30T12:25:14;102600;;;13.34;50
68117;BME280;54909;54.464;18.498;2024-01-30T12:28:16;102600;;;13.82;48
68117;BME280;54909;54.464;18.498;2024-01-30T12:31:17;102600;;;14.16;47
68117;BME280;54909;54.464;18.498;2024-01-30T12:34:25;102600;;;14.59;46
68117;BME280;54909;54.464;18.498;2024-01-30T12:37:26;102600;;;14.88;45
68117;BME280;54909;54.464;18.498;2024-01-30T12:40:27;102600;;;15.06;45
68117;BME280;54909;54.464;18.498;2024-01-30T12:43:29;102600;;;15.20;44
68117;BME280;54909;54.464;18.498;2024-01-30T12:46:30;102600;;;14.88;43
68117;BME280;54909;54.464;18.498;2024-01-30T12:49:31;102600;;;14.57;44
68117;BME280;54909;54.464;18.498;2024-01-30T12:52:33;102600;;;14.58;44
68117;BME280;54909;54.464;18.498;2024-01-30T12:55:34;102600;;;14.75;43
68117;BME280;54909;54.464;18.498;2024-01-30T12:58:38;102600;;;14.76;43
68117;BME280;54909;54.464;18.498;2024-01-30T13:01:40;102600;;;14.62;43
68117;BME280;54909;54.464;18.498;2024-01-30T13:04:42;102600;;;14.31;44
68117;BME280;54909;54.464;18.498;2024-01-30T13:07:51;102600;;;13.91;44
68117;BME280;54909;54.464;18.498;2024-01-30T13:10:53;102600;;;13.94;44
68117;BME280;54909;54.464;18.498;2024-01-30T13:13:55;102600;;;13.95;44
68117;BME280;54909;54.464;18.498;2024-01-30T13:17:02;102600;;;13.55;46
68117;BME280;54909;54.464;18.498;2024-01-30T13:20:05;102600;;;13.10;46
68117;BME280;54909;54.464;18.498;2024-01-30T13:23:08;102600;;;12.94;47
68117;BME280;54909;54.464;18.498;2024-01-30T13:26:16;102600;;;12.78;47
68117;BME280;54909;54.464;18.498;2024-01-30T13:29:18;102600;;;12.55;48
68117;BME280;54909;54.464;18.498;2024-01-30T13:32:19;102600;;;12.55;49
68117;BME280;54909;54.464;18.498;2024-01-30T13:35:20;102600;;;12.62;48
68117;BME280;54909;54.464;18.498;2024-01-30T13:38:22;102600;;;12.45;49
68117;BME280;54909;54.464;18.498;2024-01-30T13:41:23;102600;;;12.30;49
68117;BME280;54909;54.464;18.498;2024-01-30T13:44:24;102500;;;12.12;50
68117;BME280;54909;54.464;18.498;2024-01-30T13:47:25;102600;;;11.98;50
68117;BME280;54909;54.464;18.498;2024-01-30T13:50:29;102500;;;11.82;50
68117;BME280;54909;54.464;18.498;2024-01-30T13:53:30;102500;;;11.61;51
68117;BME280;54909;54.464;18.498;2024-01-30T13:56:31;102500;;;11.47;51
68117;BME280;54909;54.464;18.498;2024-01-30T13:59:32;102500;;;11.46;51
68117;BME280;54909;54.464;18.498;2024-01-30T14:02:33;102500;;;11.32;51
68117;BME280;54909;54.464;18.498;2024-01-30T14:05:35;102500;;;11.05;52
68117;BME280;54909;54.464;18.498;2024-01-30T14:08:36;102500;;;10.78;52
68117;BME280;54909;54.464;18.498;2024-01-30T14:11:37;102500;;;10.74;53
68117;BME280;54909;54.464;18.498;2024-01-30T14:14:41;102500;;;10.61;53
68117;BME280;54909;54.464;18.498;2024-01-30T14:17:42;102500;;;10.35;54
68117;BME280;54909;54.464;18.498;2024-01-30T14:20:44;102500;;;10.06;56
68117;BME280;54909;54.464;18.498;2024-01-30T14:23:54;102500;;;9.82;56
68117;BME280;54909;54.464;18.498;2024-01-30T14:26:55;102500;;;9.60;57
68117;BME280;54909;54.464;18.498;2024-01-30T14:29:57;102500;;;9.35;58
68117;BME280;54909;54.464;18.498;2024-01-30T14:33:06;102500;;;9.26;59
68117;BME280;54909;54.464;18.498;2024-01-30T14:36:07;102500;;;9.08;59
68117;BME280;54909;54.464;18.498;2024-01-30T14:39:10;102500;;;8.84;60
68117;BME280;54909;54.464;18.498;2024-01-30T14:42:19;102500;;;8.65;61
68117;BME280;54909;54.464;18.498;2024-01-30T14:45:20;102500;;;8.44;61
68117;BME280;54909;54.464;18.498;2024-01-30T14:48:22;102500;;;8.23;62
68117;BME280;54909;54.464;18.498;2024-01-30T14:51:32;102500;;;8.08;63
68117;BME280;54909;54.464;18.498;2024-01-30T14:54:33;102500;;;7.79;63
68117;BME280;54909;54.464;18.498;2024-01-30T14:57:34;102500;;;7.62;64
68117;BME280;54909;54.464;18.498;2024-01-30T15:00:44;102500;;;7.50;64
68117;BME280;54909;54.464;18.498;2024-01-30T15:03:45;102500;;;7.30;65
68117;BME280;54909;54.464;18.498;2024-01-30T15:06:47;102500;;;7.13;66
68117;BME280;54909;54.464;18.498;2024-01-30T15:09:56;102500;;;6.99;66
68117;BME280;54909;54.464;18.498;2024-01-30T15:12:58;102500;;;6.75;67
68117;BME280;54909;54.464;18.498;2024-01-30T15:15:59;102500;;;6.58;68
68117;BME280;54909;54.464;18.498;2024-01-30T15:19:11;102500;;;6.44;68
68117;BME280;54909;54.464;18.498;2024-01-30T15:22:12;102500;;;6.38;69
68117;BME280;54909;54.464;18.498;2024-01-30T15:25:14;102500;;;6.21;69
68117;BME280;54909;54.464;18.498;2024-01-30T15:31:36;102500;;;6.02;70
68117;BME280;54909;54.464;18.498;2024-01-30T15:34:37;102500;;;5.94;71
68117;BME280;54909;54.464;18.498;2024-01-30T15:37:38;102500;;;5.76;71
68117;BME280;54909;54.464;18.498;2024-01-30T15:40:39;102500;;;5.72;72
68117;BME280;54909;54.464;18.498;2024-01-30T15:43:41;102500;;;5.62;72
68117;BME280;54909;54.464;18.498;2024-01-30T15:46:47;102500;;;5.57;72
68117;BME280;54909;54.464;18.498;2024-01-30T15:49:49;102500;;;5.56;72
68117;BME280;54909;54.464;18.498;2024-01-30T15:52:50;102500;;;5.46;72
68117;BME280;54909;54.464;18.498;2024-01-30T15:55:59;102500;;;5.42;73
68117;BME280;54909;54.464;18.498;2024-01-30T15:59:00;102500;;;5.29;73
68117;BME280;54909;54.464;18.498;2024-01-30T16:02:02;102500;;;5.22;73
68117;BME280;54909;54.464;18.498;2024-01-30T16:05:12;102500;;;5.21;73
68117;BME280;54909;54.464;18.498;2024-01-30T16:08:13;102500;;;5.11;74
68117;BME280;54909;54.464;18.498;2024-01-30T16:11:16;102500;;;5.07;74
68117;BME280;54909;54.464;18.498;2024-01-30T16:14:24;102500;;;4.98;74
68117;BME280;54909;54.464;18.498;2024-01-30T16:17:25;102500;;;4.91;75
68117;BME280;54909;54.464;18.498;2024-01-30T16:20:26;102500;;;4.86;75
68117;BME280;54909;54.464;18.498;2024-01-30T16:23:37;102500;;;4.80;75
68117;BME280;54909;54.464;18.498;2024-01-30T16:26:38;102500;;;4.78;75
68117;BME280;54909;54.464;18.498;2024-01-30T16:29:40;102500;;;4.75;75
68117;BME280;54909;54.464;18.498;2024-01-30T16:32:48;102500;;;4.74;75
68117;BME280;54909;54.464;18.498;2024-01-30T16:35:49;102500;;;4.65;76
68117;BME280;54909;54.464;18.498;2024-01-30T16:38:50;102500;;;4.64;76
68117;BME280;54909;54.464;18.498;2024-01-30T16:41:59;102500;;;4.50;76
68117;BME280;54909;54.464;18.498;2024-01-30T16:45:00;102500;;;4.55;76
68117;BME280;54909;54.464;18.498;2024-01-30T16:48:01;102500;;;4.54;76
68117;BME280;54909;54.464;18.498;2024-01-30T16:51:12;102500;;;4.44;77
68117;BME280;54909;54.464;18.498;2024-01-30T16:54:13;102500;;;4.41;77
68117;BME280;54909;54.464;18.498;2024-01-30T16:57:14;102500;;;4.45;77
68117;BME280;54909;54.464;18.498;2024-01-30T17:00:23;102500;;;4.31;77
68117;BME280;54909;54.464;18.498;2024-01-30T17:03:24;102500;;;4.30;77
68117;BME280;54909;54.464;18.498;2024-01-30T17:06:25;102500;;;4.17;78
68117;BME280;54909;54.464;18.498;2024-01-30T17:09:34;102500;;;4.22;78
68117;BME280;54909;54.464;18.498;2024-01-30T17:12:35;102500;;;4.10;78
68117;BME280;54909;54.464;18.498;2024-01-30T17:15:37;102500;;;4.12;78
68117;BME280;54909;54.464;18.498;2024-01-30T17:18:38;102500;;;4.10;78
68117;BME280;54909;54.464;18.498;2024-01-30T17:21:39;102500;;;4.12;78
68117;BME280;54909;54.464;18.498;2024-01-30T17:24:40;102500;;;4.12;78